sensor_id;sensor_type;location;lat;lon;timestamp;pressure;altitude;pressure_sealevel;temperature;humidity
76205;BME280;64986;55.672;37.628;2023-06-22T00:01:59;99734.41;;;15.05;nan
76205;BME280;64986;55.672;37.628;2023-06-22T00:04:24;99730.00;;;14.99;nan
76205;BME280;64986;55.672;37.628;2023-06-22T00:06:50;99728.34;;;14.86;nan
76205;BME280;64986;55.672;37.628;2023-06-22T00:09:16;99725.94;;;14.85;nan
76205;BME280;64986;55.672;37.628;2023-06-22T00:11:41;99732.38;;;14.77;nan
76205;BME280;64986;55.672;37.628;2023-06-22T00:14:07;99728.19;;;14.69;nan
76205;BME280;64986;55.672;37.628;2023-06-22T00:16:33;99727.16;;;14.70;nan
76205;BME280;64986;55.672;37.628;2023-06-22T02:09:17;99738.97;;;15.63;nan
76205;BME280;64986;55.672;37.628;2023-06-22T02:11:45;99745.44;;;15.67;nan
76205;BME280;64986;55.672;37.628;2023-06-22T02:14:13;99746.56;;;15.71;nan
76205;BME280;64986;55.672;37.628;2023-06-22T02:16:41;99733.44;;;15.76;nan
76205;BME280;64986;55.672;37.628;2023-06-22T02:19:07;99730.88;;;15.81;nan
76205;BME280;64986;55.672;37.628;2023-06-22T02:21:33;99735.97;;;15.83;nan
76205;BME280;64986;55.672;37.628;2023-06-22T02:23:59;99730.53;;;15.90;nan
76205;BME280;64986;55.672;37.628;2023-06-22T02:26:28;99719.66;;;15.91;nan
76205;BME280;64986;55.672;37.628;2023-06-22T02:28:53;99716.66;;;15.99;nan
76205;BME280;64986;55.672;37.628;2023-06-22T02:31:19;99719.41;;;16.04;nan
76205;BME280;64986;55.672;37.628;2023-06-22T02:33:45;99716.53;;;16.06;nan
76205;BME280;64986;55.672;37.628;2023-06-22T02:36:11;99709.59;;;16.05;nan
76205;BME280;64986;55.672;37.628;2023-06-22T02:38:41;99713.06;;;16.05;nan
76205;BME280;64986;55.672;37.628;2023-06-22T02:41:14;99708.81;;;16.04;nan
76205;BME280;64986;55.672;37.628;2023-06-22T02:43:43;99709.16;;;15.96;nan
76205;BME280;64986;55.672;37.628;2023-06-22T02:46:09;99705.91;;;15.94;nan
76205;BME280;64986;55.672;37.628;2023-06-22T02:48:35;99708.94;;;15.98;nan
76205;BME280;64986;55.672;37.628;2023-06-22T02:51:00;99705.59;;;16.02;nan
76205;BME280;64986;55.672;37.628;2023-06-22T02:53:25;99706.56;;;16.13;nan
76205;BME280;64986;55.672;37.628;2023-06-22T02:55:51;99701.94;;;16.20;nan
76205;BME280;64986;55.672;37.628;2023-06-22T02:58:16;99695.69;;;16.26;nan
76205;BME280;64986;55.672;37.628;2023-06-22T03:00:42;99693.78;;;16.38;nan
76205;BME280;64986;55.672;37.628;2023-06-22T03:03:07;99695.84;;;16.48;nan
76205;BME280;64986;55.672;37.628;2023-06-22T03:05:33;99693.84;;;16.55;nan
76205;BME280;64986;55.672;37.628;2023-06-22T03:08:00;99699.06;;;16.67;nan
76205;BME280;64986;55.672;37.628;2023-06-22T03:10:26;99676.75;;;16.68;nan
76205;BME280;64986;55.672;37.628;2023-06-22T03:12:51;99698.81;;;16.80;nan
76205;BME280;64986;55.672;37.628;2023-06-22T03:15:17;99691.75;;;16.86;nan
76205;BME280;64986;55.672;37.628;2023-06-22T03:17:45;99691.00;;;16.90;nan
76205;BME280;64986;55.672;37.628;2023-06-22T03:20:11;99689.00;;;16.98;nan
76205;BME280;64986;55.672;37.628;2023-06-22T03:22:41;99696.50;;;17.01;nan
76205;BME280;64986;55.672;37.628;2023-06-22T03:25:08;99683.75;;;17.03;nan
76205;BME280;64986;55.672;37.628;2023-06-22T03:27:38;99687.63;;;17.12;nan
76205;BME280;64986;55.672;37.628;2023-06-22T03:30:07;99690.28;;;17.12;nan
76205;BME280;64986;55.672;37.628;2023-06-22T03:32:33;99680.59;;;17.23;nan
76205;BME280;64986;55.672;37.628;2023-06-22T03:34:58;99679.63;;;17.29;nan
76205;BME280;64986;55.672;37.628;2023-06-22T03:37:27;99687.09;;;17.48;nan
76205;BME280;64986;55.672;37.628;2023-06-22T03:39:53;99682.72;;;17.59;nan
76205;BME280;64986;55.672;37.628;2023-06-22T03:42:19;99673.66;;;17.60;nan
76205;BME280;64986;55.672;37.628;2023-06-22T03:44:44;99675.03;;;17.80;nan
76205;BME280;64986;55.672;37.628;2023-06-22T03:47:10;99677.34;;;17.93;nan
76205;BME280;64986;55.672;37.628;2023-06-22T03:49:36;99668.59;;;17.97;nan
76205;BME280;64986;55.672;37.628;2023-06-22T03:52:02;99666.50;;;17.99;nan
76205;BME280;64986;55.672;37.628;2023-06-22T03:54:29;99656.66;;;18.00;nan
76205;BME280;64986;55.672;37.628;2023-06-22T03:56:56;99668.63;;;18.24;nan
76205;BME280;64986;55.672;37.628;2023-06-22T03:59:21;99662.16;;;18.42;nan
76205;BME280;64986;55.672;37.628;2023-06-22T04:01:47;99659.69;;;18.63;nan
76205;BME280;64986;55.672;37.628;2023-06-22T04:04:12;99660.38;;;18.80;nan
76205;BME280;64986;55.672;37.628;2023-06-22T04:06:38;99662.03;;;18.86;nan
76205;BME280;64986;55.672;37.628;2023-06-22T04:09:05;99662.09;;;18.91;nan
76205;BME280;64986;55.672;37.628;2023-06-22T04:11:31;99656.28;;;18.99;nan
76205;BME280;64986;55.672;37.628;2023-06-22T04:13:56;99659.38;;;19.23;nan
76205;BME280;64986;55.672;37.628;2023-06-22T04:16:22;99649.84;;;19.37;nan
76205;BME280;64986;55.672;37.628;2023-06-22T04:18:47;99653.91;;;19.45;nan
76205;BME280;64986;55.672;37.628;2023-06-22T04:21:13;99652.03;;;19.46;nan
76205;BME280;64986;55.672;37.628;2023-06-22T04:23:39;99648.72;;;19.71;nan
76205;BME280;64986;55.672;37.628;2023-06-22T04:26:04;99649.56;;;19.81;nan
76205;BME280;64986;55.672;37.628;2023-06-22T04:28:30;99639.50;;;20.09;nan
76205;BME280;64986;55.672;37.628;2023-06-22T04:31:01;99632.78;;;19.96;nan
76205;BME280;64986;55.672;37.628;2023-06-22T04:33:27;99642.91;;;19.94;nan
76205;BME280;64986;55.672;37.628;2023-06-22T04:35:55;99650.09;;;19.83;nan
76205;BME280;64986;55.672;37.628;2023-06-22T04:38:22;99643.66;;;19.74;nan
76205;BME280;64986;55.672;37.628;2023-06-22T04:40:48;99649.56;;;19.86;nan
76205;BME280;64986;55.672;37.628;2023-06-22T04:43:14;99640.50;;;19.92;nan
76205;BME280;64986;55.672;37.628;2023-06-22T04:45:40;99646.47;;;20.25;nan
76205;BME280;64986;55.672;37.628;2023-06-22T04:48:06;99637.19;;;20.53;nan
76205;BME280;64986;55.672;37.628;2023-06-22T04:50:31;99637.19;;;20.53;nan
76205;BME280;64986;55.672;37.628;2023-06-22T04:52:57;99634.53;;;20.53;nan
76205;BME280;64986;55.672;37.628;2023-06-22T04:55:23;99635.78;;;20.25;nan
76205;BME280;64986;55.672;37.628;2023-06-22T04:57:51;99630.19;;;20.21;nan
76205;BME280;64986;55.672;37.628;2023-06-22T05:00:18;99623.75;;;20.22;nan
76205;BME280;64986;55.672;37.628;2023-06-22T05:02:45;99630.44;;;20.20;nan
76205;BME280;64986;55.672;37.628;2023-06-22T05:05:12;99633.88;;;19.95;nan
76205;BME280;64986;55.672;37.628;2023-06-22T05:07:45;99628.84;;;20.19;nan
76205;BME280;64986;55.672;37.628;2023-06-22T05:10:13;99646.25;;;20.27;nan
76205;BME280;64986;55.672;37.628;2023-06-22T05:12:40;99642.94;;;19.99;nan
76205;BME280;64986;55.672;37.628;2023-06-22T05:15:07;99646.91;;;19.81;nan
76205;BME280;64986;55.672;37.628;2023-06-22T05:17:32;99649.56;;;19.86;nan
76205;BME280;64986;55.672;37.628;2023-06-22T05:19:58;99640.81;;;19.96;nan
76205;BME280;64986;55.672;37.628;2023-06-22T05:22:24;99644.28;;;20.02;nan
76205;BME280;64986;55.672;37.628;2023-06-22T05:24:49;99636.31;;;20.12;nan
76205;BME280;64986;55.672;37.628;2023-06-22T05:27:15;99635.53;;;20.21;nan
76205;BME280;64986;55.672;37.628;2023-06-22T05:29:40;99631.53;;;20.39;nan
76205;BME280;64986;55.672;37.628;2023-06-22T05:32:06;99642.81;;;20.62;nan
76205;BME280;64986;55.672;37.628;2023-06-22T05:34:32;99632.41;;;20.50;nan
76205;BME280;64986;55.672;37.628;2023-06-22T05:36:57;99632.91;;;20.62;nan
76205;BME280;64986;55.672;37.628;2023-06-22T05:39:26;99633.47;;;20.90;nan
76205;BME280;64986;55.672;37.628;2023-06-22T05:41:51;99640.44;;;21.01;nan
76205;BME280;64986;55.672;37.628;2023-06-22T05:44:18;99636.66;;;21.12;nan
76205;BME280;64986;55.672;37.628;2023-06-22T05:46:44;99635.28;;;21.30;nan
76205;BME280;64986;55.672;37.628;2023-06-22T05:49:12;99654.22;;;21.64;nan
76205;BME280;64986;55.672;37.628;2023-06-22T05:51:37;99639.53;;;21.56;nan
76205;BME280;64986;55.672;37.628;2023-06-22T05:54:03;99647.03;;;21.44;nan
76205;BME280;64986;55.672;37.628;2023-06-22T05:56:28;99640.38;;;21.42;nan
76205;BME280;64986;55.672;37.628;2023-06-22T05:58:54;99654.03;;;21.35;nan
76205;BME280;64986;55.672;37.628;2023-06-22T06:01:19;99638.00;;;20.89;nan
76205;BME280;64986;55.672;37.628;2023-06-22T06:03:45;99636.94;;;21.11;nan
76205;BME280;64986;55.672;37.628;2023-06-22T06:06:11;99639.06;;;21.24;nan
76205;BME280;64986;55.672;37.628;2023-06-22T06:08:38;99637.41;;;21.43;nan
76205;BME280;64986;55.672;37.628;2023-06-22T06:11:03;99634.16;;;21.62;nan
76205;BME280;64986;55.672;37.628;2023-06-22T06:13:29;99640.31;;;21.52;nan
76205;BME280;64986;55.672;37.628;2023-06-22T06:15:56;99629.69;;;21.16;nan
76205;BME280;64986;55.672;37.628;2023-06-22T06:18:21;99629.88;;;21.55;nan
76205;BME280;64986;55.672;37.628;2023-06-22T06:20:47;99621.34;;;21.38;nan
76205;BME280;64986;55.672;37.628;2023-06-22T06:23:12;99633.94;;;21.43;nan
76205;BME280;64986;55.672;37.628;2023-06-22T06:25:38;99632.50;;;21.66;nan
76205;BME280;64986;55.672;37.628;2023-06-22T06:28:04;99639.69;;;21.85;nan
76205;BME280;64986;55.672;37.628;2023-06-22T06:30:30;99647.88;;;22.04;nan
76205;BME280;64986;55.672;37.628;2023-06-22T06:32:55;99633.44;;;22.00;nan
76205;BME280;64986;55.672;37.628;2023-06-22T06:35:21;99628.75;;;22.26;nan
76205;BME280;64986;55.672;37.628;2023-06-22T06:37:49;99639.66;;;22.40;nan
76205;BME280;64986;55.672;37.628;2023-06-22T06:40:16;99652.69;;;22.12;nan
76205;BME280;64986;55.672;37.628;2023-06-22T06:42:46;99613.94;;;22.34;nan
76205;BME280;64986;55.672;37.628;2023-06-22T06:45:17;99624.06;;;22.47;nan
76205;BME280;64986;55.672;37.628;2023-06-22T06:47:43;99627.03;;;22.46;nan
76205;BME280;64986;55.672;37.628;2023-06-22T06:50:10;99644.84;;;22.26;nan
76205;BME280;64986;55.672;37.628;2023-06-22T06:52:36;99642.47;;;22.59;nan
76205;BME280;64986;55.672;37.628;2023-06-22T06:55:02;99629.31;;;22.62;nan
76205;BME280;64986;55.672;37.628;2023-06-22T06:57:34;99631.44;;;23.00;nan
76205;BME280;64986;55.672;37.628;2023-06-22T07:00:00;99622.28;;;22.66;nan
76205;BME280;64986;55.672;37.628;2023-06-22T07:02:26;99627.56;;;23.11;nan
76205;BME280;64986;55.672;37.628;2023-06-22T07:04:53;99624.28;;;23.67;nan
76205;BME280;64986;55.672;37.628;2023-06-22T07:07:20;99616.72;;;24.12;nan
76205;BME280;64986;55.672;37.628;2023-06-22T07:09:46;99625.56;;;24.31;nan
76205;BME280;64986;55.672;37.628;2023-06-22T07:12:12;99603.84;;;24.79;nan
76205;BME280;64986;55.672;37.628;2023-06-22T07:14:37;99605.84;;;24.87;nan
76205;BME280;64986;55.672;37.628;2023-06-22T07:17:03;99623.25;;;24.43;nan
76205;BME280;64986;55.672;37.628;2023-06-22T07:19:29;99619.84;;;24.19;nan
76205;BME280;64986;55.672;37.628;2023-06-22T07:21:55;99630.44;;;24.29;nan
76205;BME280;64986;55.672;37.628;2023-06-22T07:24:21;99614.28;;;24.10;nan
76205;BME280;64986;55.672;37.628;2023-06-22T07:26:47;99630.44;;;24.29;nan
76205;BME280;64986;55.672;37.628;2023-06-22T07:29:18;99623.03;;;24.58;nan
76205;BME280;64986;55.672;37.628;2023-06-22T07:31:45;99610.84;;;24.61;nan
76205;BME280;64986;55.672;37.628;2023-06-22T07:34:11;99609.63;;;24.86;nan
76205;BME280;64986;55.672;37.628;2023-06-22T07:36:36;99602.16;;;24.97;nan
76205;BME280;64986;55.672;37.628;2023-06-22T07:39:02;99619.72;;;24.94;nan
76205;BME280;64986;55.672;37.628;2023-06-22T07:41:29;99615.00;;;25.18;nan
76205;BME280;64986;55.672;37.628;2023-06-22T07:43:55;99605.63;;;25.43;nan
76205;BME280;64986;55.672;37.628;2023-06-22T07:46:20;99616.81;;;25.37;nan
76205;BME280;64986;55.672;37.628;2023-06-22T07:48:46;99612.81;;;25.34;nan
76205;BME280;64986;55.672;37.628;2023-06-22T07:51:11;99612.66;;;24.98;nan
76205;BME280;64986;55.672;37.628;2023-06-22T07:53:41;99616.41;;;24.51;nan
76205;BME280;64986;55.672;37.628;2023-06-22T07:56:07;99610.31;;;24.45;nan
76205;BME280;64986;55.672;37.628;2023-06-22T07:58:32;99610.13;;;24.88;nan
76205;BME280;64986;55.672;37.628;2023-06-22T08:00:58;99600.91;;;25.22;nan
76205;BME280;64986;55.672;37.628;2023-06-22T08:03:24;99601.81;;;25.31;nan
76205;BME280;64986;55.672;37.628;2023-06-22T08:05:49;99593.66;;;25.36;nan
76205;BME280;64986;55.672;37.628;2023-06-22T08:08:15;99603.13;;;25.47;nan
76205;BME280;64986;55.672;37.628;2023-06-22T08:10:42;99602.84;;;25.35;nan
76205;BME280;64986;55.672;37.628;2023-06-22T08:13:08;99598.00;;;25.87;nan
76205;BME280;64986;55.672;37.628;2023-06-22T08:15:33;99595.25;;;25.37;nan
76205;BME280;64986;55.672;37.628;2023-06-22T08:17:59;99596.22;;;25.13;nan
76205;BME280;64986;55.672;37.628;2023-06-22T08:20:26;99595.97;;;24.50;nan
76205;BME280;64986;55.672;37.628;2023-06-22T08:22:53;99589.56;;;24.78;nan
76205;BME280;64986;55.672;37.628;2023-06-22T08:25:19;99588.06;;;25.32;nan
76205;BME280;64986;55.672;37.628;2023-06-22T08:27:48;99593.44;;;25.05;nan
76205;BME280;64986;55.672;37.628;2023-06-22T08:30:14;99594.03;;;25.29;nan
76205;BME280;64986;55.672;37.628;2023-06-22T08:32:40;99590.63;;;25.24;nan
76205;BME280;64986;55.672;37.628;2023-06-22T08:35:06;99587.47;;;25.49;nan
76205;BME280;64986;55.672;37.628;2023-06-22T08:37:35;99585.78;;;25.39;nan
76205;BME280;64986;55.672;37.628;2023-06-22T08:40:02;99592.84;;;25.49;nan
76205;BME280;64986;55.672;37.628;2023-06-22T08:42:33;99587.72;;;25.61;nan
76205;BME280;64986;55.672;37.628;2023-06-22T08:44:59;99577.34;;;26.18;nan
76205;BME280;64986;55.672;37.628;2023-06-22T08:47:24;99577.00;;;26.56;nan
76205;BME280;64986;55.672;37.628;2023-06-22T08:49:50;99569.66;;;26.79;nan
76205;BME280;64986;55.672;37.628;2023-06-22T08:52:18;99566.28;;;26.73;nan
76205;BME280;64986;55.672;37.628;2023-06-22T08:54:45;99569.72;;;26.65;nan
76205;BME280;64986;55.672;37.628;2023-06-22T08:57:10;99557.19;;;26.61;nan
76205;BME280;64986;55.672;37.628;2023-06-22T08:59:36;99555.00;;;26.04;nan
76205;BME280;64986;55.672;37.628;2023-06-22T09:02:02;99561.00;;;25.37;nan
76205;BME280;64986;55.672;37.628;2023-06-22T09:04:27;99555.66;;;24.91;nan
76205;BME280;64986;55.672;37.628;2023-06-22T09:06:52;99564.41;;;24.69;nan
76205;BME280;64986;55.672;37.628;2023-06-22T09:09:18;99554.28;;;24.47;nan
76205;BME280;64986;55.672;37.628;2023-06-22T09:11:44;99560.47;;;24.48;nan
76205;BME280;64986;55.672;37.628;2023-06-22T09:14:10;99531.13;;;24.79;nan
76205;BME280;64986;55.672;37.628;2023-06-22T09:16:36;99531.31;;;24.69;nan
76205;BME280;64986;55.672;37.628;2023-06-22T09:19:02;99574.59;;;24.72;nan
76205;BME280;64986;55.672;37.628;2023-06-22T09:21:28;99538.25;;;24.56;nan
76205;BME280;64986;55.672;37.628;2023-06-22T09:23:54;99550.47;;;24.34;nan
76205;BME280;64986;55.672;37.628;2023-06-22T09:26:20;99549.50;;;24.25;nan
76205;BME280;64986;55.672;37.628;2023-06-22T09:28:46;99525.81;;;24.08;nan
76205;BME280;64986;55.672;37.628;2023-06-22T09:31:12;99538.69;;;23.93;nan
76205;BME280;64986;55.672;37.628;2023-06-22T09:33:39;99541.16;;;24.27;nan
76205;BME280;64986;55.672;37.628;2023-06-22T09:36:06;99539.72;;;24.81;nan
76205;BME280;64986;55.672;37.628;2023-06-22T09:38:38;99546.50;;;25.75;nan
76205;BME280;64986;55.672;37.628;2023-06-22T09:41:04;99534.66;;;27.05;nan
76205;BME280;64986;55.672;37.628;2023-06-22T09:43:32;99533.25;;;28.42;nan
76205;BME280;64986;55.672;37.628;2023-06-22T09:45:57;99548.69;;;28.97;nan
76205;BME280;64986;55.672;37.628;2023-06-22T09:48:23;99541.03;;;28.99;nan
76205;BME280;64986;55.672;37.628;2023-06-22T09:50:49;99526.88;;;29.53;nan
76205;BME280;64986;55.672;37.628;2023-06-22T09:53:14;99536.81;;;29.70;nan
76205;BME280;64986;55.672;37.628;2023-06-22T09:55:40;99526.31;;;30.22;nan
76205;BME280;64986;55.672;37.628;2023-06-22T09:58:05;99523.66;;;30.80;nan
76205;BME280;64986;55.672;37.628;2023-06-22T10:00:31;99531.13;;;31.19;nan
76205;BME280;64986;55.672;37.628;2023-06-22T10:02:57;99523.13;;;30.41;nan
76205;BME280;64986;55.672;37.628;2023-06-22T10:05:22;99513.56;;;31.05;nan
76205;BME280;64986;55.672;37.628;2023-06-22T10:07:48;99514.53;;;32.29;nan
76205;BME280;64986;55.672;37.628;2023-06-22T10:10:14;99510.25;;;33.78;nan
76205;BME280;64986;55.672;37.628;2023-06-22T10:12:46;99541.34;;;33.54;nan
76205;BME280;64986;55.672;37.628;2023-06-22T10:15:11;99526.19;;;32.14;nan
76205;BME280;64986;55.672;37.628;2023-06-22T10:17:37;99516.88;;;32.75;nan
76205;BME280;64986;55.672;37.628;2023-06-22T10:20:03;99517.47;;;32.09;nan
76205;BME280;64986;55.672;37.628;2023-06-22T10:22:38;99514.56;;;31.49;nan
76205;BME280;64986;55.672;37.628;2023-06-22T10:25:04;99502.09;;;33.07;nan
76205;BME280;64986;55.672;37.628;2023-06-22T10:27:30;99496.97;;;35.37;nan
76205;BME280;64986;55.672;37.628;2023-06-22T10:29:56;99483.78;;;36.47;nan
76205;BME280;64986;55.672;37.628;2023-06-22T10:32:22;99494.84;;;36.57;nan
76205;BME280;64986;55.672;37.628;2023-06-22T10:34:47;99493.00;;;35.30;nan
76205;BME280;64986;55.672;37.628;2023-06-22T10:37:13;99486.53;;;35.16;nan
76205;BME280;64986;55.672;37.628;2023-06-22T10:39:38;99468.50;;;35.71;nan
76205;BME280;64986;55.672;37.628;2023-06-22T10:42:04;99471.94;;;36.83;nan
76205;BME280;64986;55.672;37.628;2023-06-22T10:44:29;99462.69;;;37.93;nan
76205;BME280;64986;55.672;37.628;2023-06-22T10:46:55;99460.78;;;38.68;nan
76205;BME280;64986;55.672;37.628;2023-06-22T10:49:21;99460.63;;;39.61;nan
76205;BME280;64986;55.672;37.628;2023-06-22T10:51:46;99450.59;;;40.47;nan
76205;BME280;64986;55.672;37.628;2023-06-22T10:54:12;99471.22;;;40.77;nan
76205;BME280;64986;55.672;37.628;2023-06-22T10:56:39;99464.69;;;38.99;nan
76205;BME280;64986;55.672;37.628;2023-06-22T10:59:05;99456.41;;;36.09;nan
76205;BME280;64986;55.672;37.628;2023-06-22T11:01:30;99454.22;;;35.25;nan
76205;BME280;64986;55.672;37.628;2023-06-22T11:03:57;99453.50;;;37.42;nan
76205;BME280;64986;55.672;37.628;2023-06-22T11:06:22;99452.97;;;38.35;nan
76205;BME280;64986;55.672;37.628;2023-06-22T11:08:48;99453.31;;;37.17;nan
76205;BME280;64986;55.672;37.628;2023-06-22T11:11:13;99446.63;;;38.02;nan
76205;BME280;64986;55.672;37.628;2023-06-22T11:13:39;99428.59;;;38.54;nan
76205;BME280;64986;55.672;37.628;2023-06-22T11:16:04;99444.31;;;40.43;nan
76205;BME280;64986;55.672;37.628;2023-06-22T11:18:31;99430.00;;;41.92;nan
76205;BME280;64986;55.672;37.628;2023-06-22T11:20:58;99422.19;;;40.51;nan
76205;BME280;64986;55.672;37.628;2023-06-22T11:23:24;99435.59;;;39.16;nan
76205;BME280;64986;55.672;37.628;2023-06-22T11:25:51;99430.16;;;39.82;nan
76205;BME280;64986;55.672;37.628;2023-06-22T11:28:16;99426.81;;;40.12;nan
76205;BME280;64986;55.672;37.628;2023-06-22T11:30:42;99417.94;;;41.18;nan
76205;BME280;64986;55.672;37.628;2023-06-22T11:33:08;99432.88;;;41.54;nan
76205;BME280;64986;55.672;37.628;2023-06-22T11:35:33;99441.31;;;41.10;nan
76205;BME280;64986;55.672;37.628;2023-06-22T11:37:59;99433.97;;;40.06;nan
76205;BME280;64986;55.672;37.628;2023-06-22T11:40:24;99424.66;;;38.30;nan
76205;BME280;64986;55.672;37.628;2023-06-22T11:42:50;99419.72;;;35.50;nan
76205;BME280;64986;55.672;37.628;2023-06-22T11:45:15;99419.03;;;37.77;nan
76205;BME280;64986;55.672;37.628;2023-06-22T11:47:42;99403.94;;;39.53;nan
76205;BME280;64986;55.672;37.628;2023-06-22T11:50:08;99413.25;;;41.15;nan
76205;BME280;64986;55.672;37.628;2023-06-22T11:52:34;99415.81;;;40.98;nan
76205;BME280;64986;55.672;37.628;2023-06-22T11:55:01;99400.13;;;42.07;nan
76205;BME280;64986;55.672;37.628;2023-06-22T11:57:29;99407.91;;;40.14;nan
76205;BME280;64986;55.672;37.628;2023-06-22T11:59:54;99391.50;;;39.23;nan
76205;BME280;64986;55.672;37.628;2023-06-22T12:02:20;99370.91;;;40.87;nan
76205;BME280;64986;55.672;37.628;2023-06-22T12:04:45;99380.28;;;41.35;nan
76205;BME280;64986;55.672;37.628;2023-06-22T12:07:11;99384.25;;;41.88;nan
76205;BME280;64986;55.672;37.628;2023-06-22T12:09:37;99382.03;;;42.02;nan
76205;BME280;64986;55.672;37.628;2023-06-22T12:12:02;99373.13;;;40.69;nan
76205;BME280;64986;55.672;37.628;2023-06-22T12:14:28;99380.19;;;38.68;nan
76205;BME280;64986;55.672;37.628;2023-06-22T12:16:54;99362.84;;;40.28;nan
76205;BME280;64986;55.672;37.628;2023-06-22T12:19:19;99366.75;;;41.94;nan
76205;BME280;64986;55.672;37.628;2023-06-22T12:21:45;99358.84;;;42.20;nan
76205;BME280;64986;55.672;37.628;2023-06-22T12:24:11;99367.34;;;42.05;nan
76205;BME280;64986;55.672;37.628;2023-06-22T12:26:36;99398.44;;;43.59;nan
76205;BME280;64986;55.672;37.628;2023-06-22T12:29:02;99357.69;;;43.92;nan
76205;BME280;64986;55.672;37.628;2023-06-22T12:31:27;99353.63;;;45.26;nan
76205;BME280;64986;55.672;37.628;2023-06-22T12:33:53;99348.41;;;47.05;nan
76205;BME280;64986;55.672;37.628;2023-06-22T12:36:18;99356.34;;;46.84;nan
76205;BME280;64986;55.672;37.628;2023-06-22T12:38:44;99341.06;;;42.41;nan
76205;BME280;64986;55.672;37.628;2023-06-22T12:41:09;99338.22;;;39.48;nan
76205;BME280;64986;55.672;37.628;2023-06-22T12:43:35;99341.94;;;41.06;nan
76205;BME280;64986;55.672;37.628;2023-06-22T12:46:00;99340.84;;;38.92;nan
76205;BME280;64986;55.672;37.628;2023-06-22T12:48:27;99335.66;;;39.05;nan
76205;BME280;64986;55.672;37.628;2023-06-22T12:50:53;99329.59;;;36.75;nan
76205;BME280;64986;55.672;37.628;2023-06-22T12:53:18;99327.38;;;35.88;nan
76205;BME280;64986;55.672;37.628;2023-06-22T12:55:44;99324.72;;;35.95;nan
76205;BME280;64986;55.672;37.628;2023-06-22T12:58:09;99320.72;;;33.82;nan
76205;BME280;64986;55.672;37.628;2023-06-22T13:00:35;99324.63;;;34.54;nan
76205;BME280;64986;55.672;37.628;2023-06-22T13:03:00;99316.41;;;34.27;nan
76205;BME280;64986;55.672;37.628;2023-06-22T13:05:26;99314.84;;;34.83;nan
76205;BME280;64986;55.672;37.628;2023-06-22T13:07:52;99310.34;;;37.97;nan
76205;BME280;64986;55.672;37.628;2023-06-22T13:10:17;99327.00;;;42.31;nan
76205;BME280;64986;55.672;37.628;2023-06-22T13:12:43;99316.53;;;45.32;nan
76205;BME280;64986;55.672;37.628;2023-06-22T13:15:08;99326.09;;;46.17;nan
76205;BME280;64986;55.672;37.628;2023-06-22T13:17:34;99305.59;;;45.25;nan
76205;BME280;64986;55.672;37.628;2023-06-22T13:19:59;99327.34;;;47.04;nan
76205;BME280;64986;55.672;37.628;2023-06-22T13:22:30;99313.31;;;44.79;nan
76205;BME280;64986;55.672;37.628;2023-06-22T13:24:56;99295.75;;;40.72;nan
76205;BME280;64986;55.672;37.628;2023-06-22T13:27:22;99300.50;;;37.57;nan
76205;BME280;64986;55.672;37.628;2023-06-22T13:29:47;99287.97;;;36.00;nan
76205;BME280;64986;55.672;37.628;2023-06-22T13:32:13;99293.66;;;36.32;nan
76205;BME280;64986;55.672;37.628;2023-06-22T13:34:38;99306.28;;;37.31;nan
76205;BME280;64986;55.672;37.628;2023-06-22T13:37:04;99313.63;;;35.40;nan
76205;BME280;64986;55.672;37.628;2023-06-22T13:39:29;99299.78;;;33.67;nan
76205;BME280;64986;55.672;37.628;2023-06-22T13:42:05;99297.38;;;32.65;17.92
76205;BME280;64986;55.672;37.628;2023-06-22T13:44:30;99294.25;;;32.82;18.09
76205;BME280;64986;55.672;37.628;2023-06-22T13:46:56;99280.97;;;34.08;16.84
76205;BME280;64986;55.672;37.628;2023-06-22T13:49:22;99278.75;;;33.90;17.15
76205;BME280;64986;55.672;37.628;2023-06-22T13:51:47;99273.78;;;34.22;16.95
76205;BME280;64986;55.672;37.628;2023-06-22T13:54:14;99269.31;;;35.31;15.72
76205;BME280;64986;55.672;37.628;2023-06-22T13:56:40;99270.75;;;34.84;16.21
76205;BME280;64986;55.672;37.628;2023-06-22T13:59:05;99272.22;;;35.12;16.07
76205;BME280;64986;55.672;37.628;2023-06-22T14:01:34;99265.69;;;36.67;14.93
76205;BME280;64986;55.672;37.628;2023-06-22T14:04:00;99267.28;;;39.62;12.67
76205;BME280;64986;55.672;37.628;2023-06-22T14:06:27;99271.22;;;41.39;11.50
76205;BME280;64986;55.672;37.628;2023-06-22T14:08:53;99258.19;;;39.69;12.83
76205;BME280;64986;55.672;37.628;2023-06-22T14:11:18;99259.50;;;38.80;13.38
76205;BME280;64986;55.672;37.628;2023-06-22T14:13:44;99263.09;;;39.36;13.19
76205;BME280;64986;55.672;37.628;2023-06-22T14:16:09;99259.66;;;37.70;14.40
76205;BME280;64986;55.672;37.628;2023-06-22T14:18:35;99254.44;;;35.73;15.88
76205;BME280;64986;55.672;37.628;2023-06-22T14:21:00;99258.81;;;36.29;15.49
76205;BME280;64986;55.672;37.628;2023-06-22T14:23:27;99255.38;;;35.43;16.17
76205;BME280;64986;55.672;37.628;2023-06-22T14:25:52;99267.13;;;36.43;15.49
76205;BME280;64986;55.672;37.628;2023-06-22T14:28:18;99251.53;;;39.00;13.69
76205;BME280;64986;55.672;37.628;2023-06-22T14:30:43;99259.22;;;41.22;11.91
76205;BME280;64986;55.672;37.628;2023-06-22T14:33:09;99257.66;;;42.38;11.07
76205;BME280;64986;55.672;37.628;2023-06-22T14:35:35;99255.81;;;41.42;11.96
76205;BME280;64986;55.672;37.628;2023-06-22T14:38:00;99252.72;;;42.06;11.75
76205;BME280;64986;55.672;37.628;2023-06-22T14:40:26;99248.88;;;43.36;10.78
76205;BME280;64986;55.672;37.628;2023-06-22T14:42:51;99245.19;;;44.62;9.95
76205;BME280;64986;55.672;37.628;2023-06-22T14:45:17;99248.50;;;46.06;9.61
76205;BME280;64986;55.672;37.628;2023-06-22T14:47:42;99242.25;;;44.53;9.76
76205;BME280;64986;55.672;37.628;2023-06-22T14:50:08;99248.63;;;42.94;10.73
76205;BME280;64986;55.672;37.628;2023-06-22T14:52:34;99235.69;;;38.17;13.66
76205;BME280;64986;55.672;37.628;2023-06-22T14:54:59;99240.41;;;35.34;16.02